»·PEaware :: UAL554 KSNA-KSFO

UAL554 :: KSNA-KSFO

FLIGHT INFORMATION

Flight Status: Arrived
Operator:
United Airlines
More flights by this operator :: More flights under this callsign
Pilot: Cody B. (17747)
Aircraft: BOEING 737-800
(B738)
More flights by this aircraft type
Origin: KSNA John Wayne-Orange Co
United States
Destination: KSFO San Francisco Intl
United States
More flights between these airports :: More routes between these airports
Route: +STOKD SERFR SERFR2
File this flight plan on PilotEdge
Remarks: GPS, RNAV
Altitude:
(Current/Filed)
28,000ft
Speed:
(Current/Filed)
450kts
Departed: 04-Jan-18 05:39 PM
Arrived: 04-Jan-18 06:39 PM
Distance/Time
Traveled:
323nm/1:00
Distance/Time
To Go:
Arrived

Flight Plot

Page will automatically refresh every two minutes.

Flight plan parsing failed; only flown route is shown


Map Options




Map Legend


Flown Route
Filed Route
Departure Airport
Arrival Airport
Navaid (VOR, NDB)
Fix

Horizontal Profiles

Position Reports

Time Latitude Longitude Heading Altitude Ground
Speed
04-Jan-18 17:09 33.679016 -117.862600 118 42ft 0kts
04-Jan-18 17:10 33.679016 -117.862600 118 42ft 0kts
04-Jan-18 17:11 33.679016 -117.862600 118 42ft 0kts
04-Jan-18 17:12 33.679016 -117.862600 118 42ft 0kts
04-Jan-18 17:13 33.679016 -117.862600 118 42ft 0kts
04-Jan-18 17:14 33.679016 -117.862600 118 42ft 0kts
04-Jan-18 17:15 33.679016 -117.862600 118 42ft 0kts
04-Jan-18 17:16 33.679016 -117.862600 118 42ft 0kts
04-Jan-18 17:17 33.679016 -117.862600 118 42ft 0kts
04-Jan-18 17:18 33.679016 -117.862600 118 42ft 0kts
04-Jan-18 17:19 33.679016 -117.862600 118 42ft 0kts
04-Jan-18 17:20 33.679016 -117.862600 118 42ft 0kts
04-Jan-18 17:21 33.679016 -117.862600 118 42ft 0kts
04-Jan-18 17:22 33.679016 -117.862600 118 42ft 0kts
04-Jan-18 17:23 33.679016 -117.862600 118 42ft 0kts
04-Jan-18 17:24 33.679016 -117.862600 118 42ft 0kts
04-Jan-18 17:25 33.679016 -117.862600 118 42ft 0kts
04-Jan-18 17:26 33.679016 -117.862600 118 42ft 0kts
04-Jan-18 17:27 33.679016 -117.862600 118 42ft 0kts
04-Jan-18 17:28 33.679016 -117.862600 118 42ft 0kts
04-Jan-18 17:29 33.679016 -117.862600 118 42ft 0kts
04-Jan-18 17:30 33.679016 -117.862600 118 42ft 0kts
04-Jan-18 17:31 33.679016 -117.862600 118 42ft 0kts
04-Jan-18 17:32 33.679016 -117.862600 118 42ft 0kts
04-Jan-18 17:33 33.679016 -117.862600 118 42ft 0kts
04-Jan-18 17:34 33.679125 -117.862845 118 43ft 2kts
04-Jan-18 17:35 33.679114 -117.863326 23 44ft 1kts
04-Jan-18 17:36 33.679083 -117.863344 26 44ft 0kts
04-Jan-18 17:37 33.679083 -117.863344 26 44ft 0kts
04-Jan-18 17:38 33.679083 -117.863344 26 44ft 0kts
04-Jan-18 17:39 33.679083 -117.863344 26 44ft 0kts
04-Jan-18 17:40 33.679083 -117.863344 26 44ft 0kts
04-Jan-18 17:41 33.679485 -117.863088 27 43ft 5kts
04-Jan-18 17:42 33.680640 -117.863086 302 43ft 0kts
04-Jan-18 17:43 33.680947 -117.863779 298 44ft 7kts
04-Jan-18 17:44 33.680607 -117.865710 207 44ft 5kts
04-Jan-18 17:45 33.668034 -117.873680 209 130ft 167kts
04-Jan-18 17:46 33.606724 -117.899878 187 1853ft 318kts
04-Jan-18 17:47 33.542933 -117.926364 227 5808ft 258kts
04-Jan-18 17:48 33.492373 -117.987889 224 7966ft 266kts
04-Jan-18 17:49 33.451044 -118.061087 240 10549ft 283kts
04-Jan-18 17:50 33.414607 -118.150260 263 13035ft 310kts
04-Jan-18 17:51 33.430165 -118.252118 281 13053ft 313kts
04-Jan-18 17:52 33.460277 -118.349178 295 13052ft 317kts
04-Jan-18 17:53 33.501421 -118.442268 295 13053ft 316kts
04-Jan-18 17:54 33.559689 -118.519593 321 13054ft 326kts
04-Jan-18 17:55 33.633533 -118.581629 321 13052ft 325kts
04-Jan-18 17:56 33.707451 -118.643526 321 13006ft 325kts
04-Jan-18 17:57 33.775603 -118.700829 321 13020ft 326kts
04-Jan-18 17:58 33.849785 -118.763326 321 13324ft 333kts
04-Jan-18 17:59 33.926046 -118.827563 320 16380ft 345kts
04-Jan-18 18:00 34.005656 -118.894607 320 19131ft 360kts
04-Jan-18 18:01 34.087455 -118.963454 319 21864ft 372kts
04-Jan-18 18:02 34.157724 -119.037204 296 24169ft 367kts
04-Jan-18 18:03 34.214143 -119.138471 306 26256ft 384kts
04-Jan-18 18:04 34.285443 -119.230781 306 28154ft 391kts
04-Jan-18 18:05 34.361574 -119.329712 307 28179ft 436kts
04-Jan-18 18:06 34.444665 -119.437811 307 28165ft 449kts
04-Jan-18 18:07 34.527557 -119.545910 307 28159ft 449kts
04-Jan-18 18:08 34.609127 -119.652556 306 28157ft 449kts
04-Jan-18 18:09 34.693012 -119.762623 306 28168ft 449kts
04-Jan-18 18:10 34.776818 -119.872943 306 28169ft 450kts
04-Jan-18 18:11 34.858180 -119.980448 306 28167ft 450kts
04-Jan-18 18:12 34.940455 -120.089499 306 28166ft 450kts
04-Jan-18 18:13 35.022417 -120.198479 306 28167ft 450kts
04-Jan-18 18:14 35.102284 -120.304985 305 28166ft 451kts
04-Jan-18 18:15 35.180967 -120.410298 305 28157ft 451kts
04-Jan-18 18:16 35.263808 -120.521519 305 28158ft 451kts
04-Jan-18 18:17 35.346784 -120.633244 305 28156ft 451kts
04-Jan-18 18:18 35.427000 -120.741667 305 28167ft 450kts
04-Jan-18 18:19 35.514206 -120.848099 315 28169ft 463kts
04-Jan-18 18:20 35.615840 -120.941797 315 28158ft 463kts
04-Jan-18 18:21 35.717462 -121.036777 315 28157ft 463kts
04-Jan-18 18:22 35.819601 -121.132293 315 28158ft 464kts
04-Jan-18 18:23 35.922061 -121.228049 315 28154ft 464kts
04-Jan-18 18:24 36.024766 -121.323971 315 28159ft 466kts
04-Jan-18 18:25 36.125021 -121.409466 320 28121ft 472kts
04-Jan-18 18:26 36.229042 -121.490349 319 28092ft 437kts
04-Jan-18 18:27 36.327013 -121.567168 319 26408ft 409kts
04-Jan-18 18:28 36.420154 -121.640245 320 24421ft 398kts
04-Jan-18 18:29 36.508084 -121.709161 319 22572ft 386kts
04-Jan-18 18:30 36.593869 -121.777132 320 20761ft 379kts
04-Jan-18 18:31 36.680351 -121.845685 320 19145ft 368kts
04-Jan-18 18:32 36.769402 -121.903029 342 19169ft 386kts
04-Jan-18 18:33 36.872103 -121.930825 342 18089ft 380kts
04-Jan-18 18:34 36.970707 -121.959857 336 15752ft 363kts
04-Jan-18 18:35 37.061107 -121.995603 338 13572ft 364kts
04-Jan-18 18:36 37.143559 -122.027938 339 11320ft 336kts
04-Jan-18 18:37 37.223004 -122.059054 340 9015ft 322kts
04-Jan-18 18:38 37.297767 -122.088263 341 7108ft 299kts
04-Jan-18 18:39 37.369680 -122.116449 342 5769ft 280kts
04-Jan-18 18:40 37.438188 -122.143491 342 4480ft 275kts
04-Jan-18 18:41 37.509112 -122.166656 347 3264ft 272kts
04-Jan-18 18:42 37.556758 -122.227830 296 2137ft 246kts
04-Jan-18 18:43 37.581205 -122.285800 295 1304ft 213kts
04-Jan-18 18:44 37.605970 -122.344696 295 283ft 141kts
04-Jan-18 18:45 37.619686 -122.377494 297 26ft 33kts
04-Jan-18 18:46 37.619840 -122.378973 241 28ft 0kts
04-Jan-18 18:47 37.619840 -122.378973 241 28ft 0kts
04-Jan-18 18:48 37.619500 -122.379414 199 29ft 5kts
04-Jan-18 18:49 37.617906 -122.380353 237 30ft 6kts
04-Jan-18 18:50 37.617770 -122.380778 252 30ft 0kts
04-Jan-18 18:51 37.617770 -122.380778 252 30ft 0kts

Navigation Log

Ident Type
Flight plan parsing failed, navigation log unavailable